createdAt,value
2019-04-01T00:00:23.605Z,11.30
2019-04-01T00:02:52.892Z,11.20
2019-04-01T00:05:22.172Z,11.20
2019-04-01T00:07:51.455Z,11.10
2019-04-01T00:10:20.733Z,11.10
2019-04-01T00:12:50.018Z,11.10
2019-04-01T00:15:19.291Z,11.00
2019-04-01T00:17:48.580Z,11.00
2019-04-01T00:20:17.854Z,11.00
2019-04-01T00:22:47.303Z,10.90
2019-04-01T00:25:16.662Z,10.80
2019-04-01T00:27:46.297Z,10.80
2019-04-01T00:30:15.568Z,10.80
2019-04-01T00:32:45.188Z,10.80
2019-04-01T00:35:14.470Z,10.80
2019-04-01T00:37:43.745Z,10.80
2019-04-01T00:40:13.526Z,10.70
2019-04-01T00:42:47.372Z,10.80
2019-04-01T00:45:18.358Z,10.70
2019-04-01T00:47:47.645Z,10.60
2019-04-01T00:50:16.922Z,10.50
2019-04-01T00:52:46.206Z,10.50
2019-04-01T00:55:15.481Z,10.40
2019-04-01T00:57:45.054Z,10.50
2019-04-01T01:00:16.036Z,10.40
2019-04-01T01:02:45.610Z,10.40
2019-04-01T01:05:15.204Z,10.30
2019-04-01T01:07:44.490Z,10.30
2019-04-01T01:10:14.200Z,10.30
2019-04-01T01:12:43.825Z,10.20
2019-04-01T01:15:13.745Z,10.10
2019-04-01T01:17:43.035Z,10.00
2019-04-01T01:20:12.573Z,10.10
2019-04-01T01:22:41.853Z,10.00
2019-04-01T01:25:11.119Z,10.00
2019-04-01T01:27:40.472Z,9.90
2019-04-01T01:30:09.982Z,9.90
2019-04-01T01:32:39.559Z,9.90
2019-04-01T01:35:08.975Z,9.80
2019-04-01T01:37:38.566Z,9.70
2019-04-01T01:40:08.147Z,9.80
2019-04-01T01:42:37.782Z,9.70
2019-04-01T01:45:07.328Z,9.80
2019-04-01T01:47:36.602Z,9.70
2019-04-01T01:50:07.416Z,9.70
2019-04-01T01:52:36.679Z,9.60
2019-04-01T01:55:06.298Z,9.60
2019-04-01T01:57:35.574Z,9.70
2019-04-01T02:00:05.631Z,9.60
2019-04-01T02:02:34.905Z,9.60
2019-04-01T02:05:05.221Z,9.50
2019-04-01T02:07:34.750Z,9.50
2019-04-01T02:10:04.770Z,9.50
2019-04-01T02:12:34.037Z,9.40
2019-04-01T02:15:04.083Z,9.50
2019-04-01T02:17:33.350Z,9.30
2019-04-01T02:20:02.635Z,9.30
2019-04-01T02:22:31.909Z,9.20
2019-04-01T02:25:01.203Z,9.10
2019-04-01T02:27:30.474Z,9.20
2019-04-01T02:29:59.757Z,9.20
2019-04-01T02:32:29.034Z,9.20
2019-04-01T02:34:58.312Z,9.20
2019-04-01T02:37:27.578Z,9.10
2019-04-01T02:39:56.860Z,9.00
2019-04-01T02:42:26.132Z,9.00
2019-04-01T02:44:55.415Z,8.80
2019-04-01T02:47:25.034Z,8.80
2019-04-01T02:49:54.316Z,8.80
2019-04-01T02:52:23.596Z,8.80
2019-04-01T02:54:53.126Z,8.70
2019-04-01T02:57:22.407Z,8.80
2019-04-01T02:59:51.682Z,8.70
2019-04-01T03:02:21.040Z,8.70
2019-04-01T03:04:50.329Z,8.60
2019-04-01T03:07:19.610Z,8.60
2019-04-01T03:09:48.875Z,8.60
2019-04-01T03:12:18.148Z,8.50
2019-04-01T03:14:47.436Z,8.50
2019-04-01T03:17:17.049Z,8.40
2019-04-01T03:19:46.320Z,8.40
2019-04-01T03:22:15.598Z,8.40
2019-04-01T03:24:44.882Z,8.40
2019-04-01T03:27:17.196Z,8.30
2019-04-01T03:29:45.447Z,8.30
2019-04-01T03:32:14.853Z,8.30
2019-04-01T03:34:44.080Z,8.20
2019-04-01T03:37:13.351Z,8.10
2019-04-01T03:39:42.890Z,8.10
2019-04-01T03:42:12.175Z,8.10
2019-04-01T03:44:41.443Z,8.10
2019-04-01T03:47:10.726Z,8.10
2019-04-01T03:49:39.991Z,8.10
2019-04-01T03:52:10.355Z,8.10
2019-04-01T03:54:40.236Z,8.00
2019-04-01T03:57:09.532Z,8.10
2019-04-01T03:59:39.157Z,8.00
2019-04-01T04:02:08.432Z,8.00
2019-04-01T04:04:37.696Z,8.00
2019-04-01T04:07:06.971Z,8.00
2019-04-01T04:09:36.233Z,7.90
2019-04-01T04:12:05.506Z,8.00
2019-04-01T04:14:35.012Z,8.00
2019-04-01T04:17:04.282Z,7.90
2019-04-01T04:19:33.555Z,7.90
2019-04-01T04:22:02.864Z,7.90
2019-04-01T04:24:32.147Z,7.90
2019-04-01T04:27:01.753Z,7.80
2019-04-01T04:29:31.021Z,7.90
2019-04-01T04:32:00.296Z,7.90
2019-04-01T04:34:29.861Z,7.80
2019-04-01T04:36:59.137Z,7.70
2019-04-01T04:39:28.765Z,7.70
2019-04-01T04:41:58.039Z,7.70
2019-04-01T04:44:27.298Z,7.70
2019-04-01T04:46:56.874Z,7.70
2019-04-01T04:49:26.486Z,7.70
2019-04-01T04:51:55.755Z,7.70
2019-04-01T04:54:25.022Z,7.70
2019-04-01T04:56:54.587Z,7.60
2019-04-01T04:59:23.863Z,7.60
2019-04-01T05:01:53.129Z,7.60
2019-04-01T05:04:22.397Z,7.60
2019-04-01T05:06:51.674Z,7.70
2019-04-01T05:09:20.935Z,7.60
2019-04-01T05:11:50.210Z,7.60
2019-04-01T05:14:19.543Z,7.70
2019-04-01T05:16:48.815Z,7.70
2019-04-01T05:19:18.084Z,7.70
2019-04-01T05:21:48.168Z,7.70
2019-04-01T05:24:17.709Z,7.70
2019-04-01T05:26:49.669Z,7.70
2019-04-01T05:29:20.271Z,7.70
2019-04-01T05:31:51.884Z,7.80
2019-04-01T05:34:22.915Z,7.80
2019-04-01T05:36:52.186Z,7.70
2019-04-01T05:39:21.521Z,7.70
2019-04-01T05:41:50.802Z,7.80
2019-04-01T05:44:20.403Z,7.70
2019-04-01T05:46:49.682Z,7.80
2019-04-01T05:49:19.255Z,7.80
2019-04-01T05:51:48.598Z,7.80
2019-04-01T05:54:18.232Z,7.80
2019-04-01T05:56:47.770Z,7.80
2019-04-01T05:59:17.570Z,7.90
2019-04-01T06:01:48.521Z,7.90
2019-04-01T06:04:17.785Z,8.00
2019-04-01T06:06:48.844Z,8.10
2019-04-01T06:09:18.327Z,8.00
2019-04-01T06:11:48.191Z,8.00
2019-04-01T06:14:17.521Z,8.10
2019-04-01T06:16:47.103Z,8.10
2019-04-01T06:19:16.668Z,8.20
2019-04-01T06:21:45.935Z,8.20
2019-04-01T06:24:15.557Z,8.20
2019-04-01T06:26:44.853Z,8.20
2019-04-01T06:29:14.099Z,8.30
2019-04-01T06:31:43.368Z,8.40
2019-04-01T06:34:12.647Z,8.40
2019-04-01T06:36:41.981Z,8.50
2019-04-01T06:39:11.274Z,8.50
2019-04-01T06:41:40.871Z,8.50
2019-04-01T06:44:10.147Z,8.60
2019-04-01T06:46:39.418Z,8.70
2019-04-01T06:49:08.693Z,8.70
2019-04-01T06:51:38.806Z,8.80
2019-04-01T06:54:08.088Z,8.80
2019-04-01T06:56:37.429Z,8.90
2019-04-01T06:59:06.778Z,8.80
2019-04-01T07:01:36.061Z,9.00
2019-04-01T07:04:05.479Z,9.10
2019-04-01T07:06:34.750Z,9.20
2019-04-01T07:09:05.871Z,9.20
2019-04-01T07:11:35.515Z,9.30
2019-04-01T07:14:05.822Z,9.40
2019-04-01T07:16:35.081Z,9.40
2019-04-01T07:19:04.371Z,9.50
2019-04-01T07:21:34.014Z,9.50
2019-04-01T07:24:03.300Z,9.60
2019-04-01T07:26:32.568Z,9.70
2019-04-01T07:29:01.852Z,9.80
2019-04-01T07:31:31.122Z,9.80
2019-04-01T07:34:00.709Z,9.90
2019-04-01T07:36:30.047Z,10.00
2019-04-01T07:38:59.322Z,10.00
2019-04-01T07:41:28.599Z,10.10
2019-04-01T07:43:57.949Z,10.10
2019-04-01T07:46:27.219Z,10.10
2019-04-01T07:48:56.502Z,10.10
2019-04-01T07:51:25.771Z,10.20
2019-04-01T07:53:55.048Z,10.30
2019-04-01T07:56:24.596Z,10.40
2019-04-01T07:58:53.944Z,10.50
2019-04-01T08:01:23.213Z,10.50
2019-04-01T08:03:52.901Z,10.50
2019-04-01T08:06:22.239Z,10.60
2019-04-01T08:08:51.528Z,10.70
2019-04-01T08:11:20.794Z,10.70
2019-04-01T08:13:50.139Z,10.90
2019-04-01T08:16:19.428Z,10.90
2019-04-01T08:18:48.713Z,11.00
2019-04-01T08:21:17.985Z,11.00
2019-04-01T08:23:47.270Z,11.00
2019-04-01T08:26:16.541Z,11.00
2019-04-01T08:28:45.827Z,11.00
2019-04-01T08:31:15.171Z,11.10
2019-04-01T08:33:44.697Z,11.20
2019-04-01T08:36:13.967Z,11.30
2019-04-01T08:38:43.254Z,11.50
2019-04-01T08:41:12.530Z,11.50
2019-04-01T08:43:42.249Z,11.60
2019-04-01T08:46:11.587Z,11.60
2019-04-01T08:48:40.876Z,11.70
2019-04-01T08:51:10.143Z,11.70
2019-04-01T08:53:40.037Z,11.70
2019-04-01T08:56:09.320Z,11.80
2019-04-01T08:58:38.946Z,11.90
2019-04-01T09:01:08.232Z,12.00
2019-04-01T09:03:37.505Z,12.20
2019-04-01T09:06:06.860Z,12.20
2019-04-01T09:08:37.475Z,12.30
2019-04-01T09:11:06.757Z,12.30
2019-04-01T09:13:36.405Z,12.50
2019-04-01T09:16:05.759Z,12.60
2019-04-01T09:18:35.032Z,12.60
2019-04-01T09:21:04.314Z,12.70
2019-04-01T09:23:33.593Z,12.80
2019-04-01T09:26:02.872Z,12.80
2019-04-01T09:28:32.496Z,12.90
2019-04-01T09:31:01.780Z,13.00
2019-04-01T09:33:31.409Z,13.10
2019-04-01T09:36:00.694Z,13.00
2019-04-01T09:38:29.971Z,13.10
2019-04-01T09:40:59.511Z,13.40
2019-04-01T09:43:28.788Z,13.40
2019-04-01T09:45:58.077Z,13.10
2019-04-01T09:48:27.594Z,13.50
2019-04-01T09:50:57.226Z,13.60
2019-04-01T09:53:26.507Z,13.60
2019-04-01T09:55:55.792Z,13.90
2019-04-01T09:58:25.064Z,14.10
2019-04-01T10:00:54.353Z,14.30
2019-04-01T10:03:23.630Z,14.50
2019-04-01T10:05:52.913Z,14.50
2019-04-01T10:08:22.377Z,14.60
2019-04-01T10:10:51.937Z,14.70
2019-04-01T10:13:21.205Z,14.80
2019-04-01T10:15:50.497Z,15.00
2019-04-01T10:18:19.774Z,15.10
2019-04-01T10:20:49.055Z,15.30
2019-04-01T10:23:18.329Z,15.40
2019-04-01T10:25:51.100Z,15.70
2019-04-01T10:28:18.897Z,15.80
2019-04-01T10:30:48.178Z,15.90
2019-04-01T10:33:17.452Z,16.10
2019-04-01T10:35:46.739Z,16.10
2019-04-01T10:38:16.013Z,16.30
2019-04-01T10:40:45.292Z,16.50
2019-04-01T10:43:14.574Z,16.70
2019-04-01T10:45:43.856Z,16.80
2019-04-01T10:48:13.171Z,17.00
2019-04-01T10:50:42.447Z,17.10
2019-04-01T10:53:11.999Z,17.30
2019-04-01T10:55:41.601Z,17.40
2019-04-01T10:58:10.878Z,17.60
2019-04-01T11:00:40.402Z,17.60
2019-04-01T11:03:09.725Z,17.60
2019-04-01T11:05:38.975Z,17.80
2019-04-01T11:08:08.257Z,18.00
2019-04-01T11:10:37.526Z,18.20
2019-04-01T11:13:06.788Z,18.40
2019-04-01T11:15:36.409Z,18.50
2019-04-01T11:18:05.998Z,18.50
2019-04-01T11:20:36.128Z,18.70
2019-04-01T11:23:06.037Z,18.90
2019-04-01T11:25:35.346Z,19.10
2019-04-01T11:28:04.663Z,19.30
2019-04-01T11:30:36.908Z,19.40
2019-04-01T11:33:07.703Z,19.40
2019-04-01T11:35:36.270Z,19.70
2019-04-01T11:38:05.603Z,19.70
2019-04-01T11:40:38.384Z,19.90
2019-04-01T11:43:05.867Z,20.00
2019-04-01T11:45:35.144Z,19.90
2019-04-01T11:48:04.451Z,20.00
2019-04-01T11:50:33.765Z,20.20
2019-04-01T11:53:03.286Z,20.40
2019-04-01T11:55:32.556Z,20.60
2019-04-01T11:58:01.841Z,20.60
2019-04-01T12:00:31.126Z,20.90
2019-04-01T12:03:00.408Z,21.00
2019-04-01T12:05:29.684Z,21.30
2019-04-01T12:07:59.294Z,21.40
2019-04-01T12:10:28.567Z,21.60
2019-04-01T12:12:57.848Z,21.90
2019-04-01T12:15:27.116Z,22.10
2019-04-01T12:17:56.411Z,22.20
2019-04-01T12:20:25.687Z,22.30
2019-04-01T12:22:55.232Z,22.50
2019-04-01T12:25:24.508Z,22.60
2019-04-01T12:27:53.792Z,22.80
2019-04-01T12:30:23.061Z,23.10
2019-04-01T12:32:52.363Z,23.30
2019-04-01T12:35:21.907Z,23.70
2019-04-01T12:37:51.183Z,23.90
2019-04-01T12:40:20.535Z,23.90
2019-04-01T12:42:50.975Z,24.00
2019-04-01T12:45:20.273Z,24.10
2019-04-01T12:47:49.560Z,24.20
2019-04-01T12:50:19.008Z,24.30
2019-04-01T12:52:48.285Z,24.60
2019-04-01T12:55:17.844Z,24.90
2019-04-01T12:57:48.573Z,24.90
2019-04-01T13:00:18.920Z,24.70
2019-04-01T13:02:49.485Z,25.00
2019-04-01T13:05:19.141Z,25.40
2019-04-01T13:07:49.873Z,25.80
2019-04-01T13:10:20.366Z,26.00
2019-04-01T13:12:49.826Z,25.60
2019-04-01T13:15:19.097Z,25.90
2019-04-01T13:17:49.903Z,26.00
2019-04-01T13:20:19.341Z,26.20
2019-04-01T13:22:48.956Z,26.60
2019-04-01T13:25:18.229Z,27.00
2019-04-01T13:27:47.508Z,26.90
2019-04-01T13:30:16.848Z,26.90
2019-04-01T13:32:46.125Z,26.90
2019-04-01T13:35:15.473Z,26.90
2019-04-01T13:37:44.745Z,26.70
2019-04-01T13:40:15.328Z,26.80
2019-04-01T13:42:44.818Z,27.00
2019-04-01T13:45:14.338Z,27.10
2019-04-01T13:47:43.610Z,26.80
2019-04-01T13:50:16.216Z,26.50
2019-04-01T13:52:44.130Z,26.00
2019-04-01T13:55:13.410Z,25.80
2019-04-01T13:57:42.949Z,25.90
2019-04-01T14:00:14.352Z,26.00
2019-04-01T14:02:43.617Z,26.00
2019-04-01T14:05:13.174Z,26.00
2019-04-01T14:07:42.440Z,26.30
2019-04-01T14:10:12.320Z,26.70
2019-04-01T14:12:41.596Z,27.10
2019-04-01T14:15:11.120Z,27.40
2019-04-01T14:17:40.393Z,27.50
2019-04-01T14:20:09.879Z,27.50
2019-04-01T14:22:39.437Z,27.70
2019-04-01T14:25:08.897Z,27.80
2019-04-01T14:27:39.321Z,28.00
2019-04-01T14:30:09.163Z,27.80
2019-04-01T14:32:38.994Z,27.50
2019-04-01T14:35:09.181Z,27.00
2019-04-01T14:37:39.639Z,26.40
2019-04-01T14:40:09.953Z,26.00
2019-04-01T14:42:39.878Z,25.70
2019-04-01T14:45:10.317Z,25.20
2019-04-01T14:47:56.121Z,25.40
2019-04-01T14:50:11.308Z,25.70
2019-04-01T14:52:41.400Z,26.00
2019-04-01T14:55:10.931Z,25.90
2019-04-01T14:57:40.200Z,26.10
2019-04-01T15:00:14.190Z,26.30
2019-04-01T15:02:43.678Z,26.70
2019-04-01T15:05:13.161Z,26.90
2019-04-01T15:07:42.431Z,26.50
2019-04-01T15:10:11.852Z,26.10
2019-04-01T15:12:41.195Z,25.90
2019-04-01T15:15:10.716Z,25.60
2019-04-01T15:17:39.984Z,25.80
2019-04-01T15:20:09.799Z,26.10
2019-04-01T15:22:39.072Z,26.10
2019-04-01T15:25:08.848Z,25.90
2019-04-01T15:27:38.453Z,25.80
2019-04-01T15:30:09.458Z,25.70
2019-04-01T15:32:38.705Z,25.60
2019-04-01T15:35:08.754Z,25.40
2019-04-01T15:37:38.030Z,25.40
2019-04-01T15:40:08.665Z,25.40
2019-04-01T15:42:37.936Z,25.20
2019-04-01T15:45:07.387Z,25.10
2019-04-01T15:47:38.304Z,25.40
2019-04-01T15:50:09.535Z,25.60
2019-04-01T15:52:39.127Z,25.80
2019-04-01T15:55:08.772Z,25.80
2019-04-01T15:57:38.045Z,25.70
2019-04-01T16:00:08.367Z,25.50
2019-04-01T16:02:37.640Z,25.30
2019-04-01T16:05:08.430Z,25.30
2019-04-01T16:07:37.709Z,25.20
2019-04-01T16:10:07.530Z,25.40
2019-04-01T16:12:36.801Z,25.20
2019-04-01T16:15:09.067Z,25.00
2019-04-01T16:17:38.419Z,24.90
2019-04-01T16:20:08.218Z,24.70
2019-04-01T16:22:37.808Z,24.80
2019-04-01T16:25:08.661Z,24.90
2019-04-01T16:27:37.933Z,24.90
2019-04-01T16:30:08.948Z,24.80
2019-04-01T16:32:38.487Z,24.80
2019-04-01T16:35:08.033Z,24.80
2019-04-01T16:37:37.599Z,24.70
2019-04-01T16:40:07.922Z,24.70
2019-04-01T16:42:37.191Z,24.60
2019-04-01T16:45:08.379Z,24.60
2019-04-01T16:47:37.662Z,24.30
2019-04-01T16:50:08.848Z,24.10
2019-04-01T16:52:38.133Z,23.80
2019-04-01T16:55:08.445Z,23.70
2019-04-01T16:57:37.804Z,23.60
2019-04-01T17:00:14.517Z,23.40
2019-04-01T17:02:42.691Z,23.30
2019-04-01T17:05:12.201Z,23.20
2019-04-01T17:07:41.853Z,23.00
2019-04-01T17:10:20.550Z,22.90
2019-04-01T17:12:49.826Z,22.70
2019-04-01T17:15:19.101Z,22.50
2019-04-01T17:17:48.380Z,22.30
2019-04-01T17:20:17.792Z,22.00
2019-04-01T17:22:47.080Z,21.90
2019-04-01T17:25:16.353Z,21.70
2019-04-01T17:27:45.627Z,21.40
2019-04-01T17:30:15.443Z,21.10
2019-04-01T17:32:44.728Z,20.80
2019-04-01T17:35:14.133Z,20.40
2019-04-01T17:37:43.418Z,20.30
2019-04-01T17:40:16.889Z,20.10
2019-04-01T17:42:45.431Z,19.90
2019-04-01T17:45:29.325Z,19.70
2019-04-01T17:48:00.489Z,19.40
2019-04-01T17:50:29.681Z,19.20
2019-04-01T17:52:58.960Z,19.10
2019-04-01T17:55:28.302Z,19.00
2019-04-01T17:57:57.590Z,18.90
2019-04-01T18:00:28.573Z,18.70
2019-04-01T18:02:57.867Z,18.50
2019-04-01T18:05:27.136Z,18.40
2019-04-01T18:07:56.491Z,18.50
2019-04-01T18:10:25.910Z,18.30
2019-04-01T18:12:55.221Z,18.20
2019-04-01T18:15:24.558Z,18.20
2019-04-01T18:17:53.840Z,18.20
2019-04-01T18:20:23.116Z,18.10
2019-04-01T18:22:52.668Z,18.00
2019-04-01T18:25:21.943Z,18.00
2019-04-01T18:27:51.225Z,17.80
2019-04-01T18:30:20.804Z,17.70
2019-04-01T18:32:54.803Z,17.60
2019-04-01T18:35:21.087Z,17.50
2019-04-01T18:37:50.374Z,17.40
2019-04-01T18:40:32.088Z,17.30
2019-04-01T18:42:51.063Z,17.20
2019-04-01T18:45:21.411Z,17.10
2019-04-01T18:47:51.569Z,17.00
2019-04-01T18:50:20.840Z,16.90
2019-04-01T18:52:50.126Z,16.90
2019-04-01T18:55:19.416Z,16.80
2019-04-01T18:57:48.769Z,16.70
2019-04-01T19:00:19.783Z,16.70
2019-04-01T19:02:49.044Z,16.60
2019-04-01T19:05:18.655Z,16.50
2019-04-01T19:07:48.267Z,16.50
2019-04-01T19:10:17.549Z,16.40
2019-04-01T19:12:46.864Z,16.30
2019-04-01T19:15:16.233Z,16.20
2019-04-01T19:17:45.773Z,16.10
2019-04-01T19:20:15.361Z,16.00
2019-04-01T19:22:44.647Z,16.00
2019-04-01T19:25:13.981Z,15.90
2019-04-01T19:27:43.591Z,15.80
2019-04-01T19:30:14.730Z,15.80
2019-04-01T19:32:44.338Z,15.70
2019-04-01T19:35:13.846Z,15.60
2019-04-01T19:37:43.456Z,15.60
2019-04-01T19:40:14.632Z,15.50
2019-04-01T19:42:43.916Z,15.40
2019-04-01T19:45:13.829Z,15.30
2019-04-01T19:47:43.110Z,15.20
2019-04-01T19:50:12.914Z,15.10
2019-04-01T19:52:44.333Z,15.10
2019-04-01T19:55:13.193Z,15.00
2019-04-01T19:57:42.475Z,15.00
2019-04-01T20:00:26.702Z,14.90
2019-04-01T20:02:43.586Z,14.80
2019-04-01T20:05:12.941Z,14.80
2019-04-01T20:07:42.205Z,14.60
2019-04-01T20:10:12.384Z,14.60
2019-04-01T20:12:41.682Z,14.50
2019-04-01T20:15:12.136Z,14.50
2019-04-01T20:17:41.878Z,14.40
2019-04-01T20:20:14.519Z,14.30
2019-04-01T20:22:43.305Z,14.20
2019-04-01T20:25:12.646Z,14.10
2019-04-01T20:27:41.956Z,14.10
2019-04-01T20:30:11.537Z,14.10
2019-04-01T20:32:40.819Z,14.10
2019-04-01T20:35:22.652Z,14.00
2019-04-01T20:37:41.479Z,13.90
2019-04-01T20:40:11.140Z,13.90
2019-04-01T20:42:40.727Z,13.80
2019-04-01T20:45:11.045Z,13.80
2019-04-01T20:47:41.293Z,13.80
2019-04-01T20:50:11.690Z,13.70
2019-04-01T20:52:40.962Z,13.70
2019-04-01T20:55:10.453Z,13.60
2019-04-01T20:57:39.726Z,13.50
2019-04-01T21:00:10.022Z,13.50
2019-04-01T21:02:39.635Z,13.40
2019-04-01T21:05:09.564Z,13.40
2019-04-01T21:07:38.842Z,13.30
2019-04-01T21:10:08.835Z,13.30
2019-04-01T21:12:38.116Z,13.20
2019-04-01T21:15:10.651Z,13.20
2019-04-01T21:17:39.920Z,13.20
2019-04-01T21:20:10.115Z,13.20
2019-04-01T21:22:39.669Z,13.20
2019-04-01T21:25:09.486Z,13.30
2019-04-01T21:27:38.762Z,13.30
2019-04-01T21:30:12.007Z,13.30
2019-04-01T21:32:41.283Z,13.20
2019-04-01T21:35:10.633Z,13.10
2019-04-01T21:37:39.901Z,13.10
2019-04-01T21:40:09.365Z,13.10
2019-04-01T21:42:38.645Z,13.10
2019-04-01T21:45:08.875Z,13.10
2019-04-01T21:47:38.515Z,13.10
2019-04-01T21:50:08.621Z,13.10
2019-04-01T21:52:37.893Z,13.00
2019-04-01T21:55:08.322Z,12.90
2019-04-01T21:57:38.066Z,12.80
2019-04-01T22:00:14.211Z,12.90
2019-04-01T22:02:44.542Z,12.80
2019-04-01T22:05:14.048Z,12.70
2019-04-01T22:07:43.325Z,12.60
2019-04-01T22:10:13.794Z,12.70
2019-04-01T22:12:43.394Z,12.70
2019-04-01T22:15:12.813Z,12.60
2019-04-01T22:17:42.088Z,12.60
2019-04-01T22:20:11.374Z,12.60
2019-04-01T22:22:40.647Z,12.50
2019-04-01T22:25:09.928Z,12.50
2019-04-01T22:27:39.206Z,12.50
2019-04-01T22:30:09.024Z,12.40
2019-04-01T22:32:38.301Z,12.40
2019-04-01T22:35:08.558Z,12.30
2019-04-01T22:37:38.097Z,12.30
2019-04-01T22:40:08.559Z,12.20
2019-04-01T22:42:37.828Z,12.20
2019-04-01T22:45:08.847Z,12.20
2019-04-01T22:47:38.408Z,12.20
2019-04-01T22:50:08.141Z,12.10
2019-04-01T22:52:37.417Z,12.00
2019-04-01T22:55:07.340Z,12.00
2019-04-01T22:57:36.612Z,11.90
2019-04-01T23:00:06.638Z,11.90
2019-04-01T23:02:35.910Z,12.00
2019-04-01T23:05:08.288Z,11.90
2019-04-01T23:07:38.003Z,11.80
2019-04-01T23:10:08.592Z,11.80
2019-04-01T23:12:38.337Z,11.80
2019-04-01T23:15:08.866Z,11.80
2019-04-01T23:17:38.715Z,11.80
2019-04-01T23:20:08.448Z,11.70
2019-04-01T23:22:37.716Z,11.70
2019-04-01T23:25:07.646Z,11.70
2019-04-01T23:27:37.255Z,11.70
2019-04-01T23:30:10.084Z,11.60
2019-04-01T23:32:41.844Z,11.60
2019-04-01T23:35:12.280Z,11.60
2019-04-01T23:37:41.857Z,11.50
2019-04-01T23:40:12.143Z,11.60
2019-04-01T23:42:41.422Z,11.50
2019-04-01T23:45:11.108Z,11.50
2019-04-01T23:47:40.387Z,11.50
2019-04-01T23:50:10.000Z,11.40
2019-04-01T23:52:39.254Z,11.40
2019-04-01T23:55:08.908Z,11.40
2019-04-01T23:57:38.183Z,11.40
